Time;durP1;ratioP1;P1;durP2;ratioP2;P2;SDS_P1;SDS_P2;PMS_P1;PMS_P2;Temp;Humidity;BMP_temperature;BMP_pressure;BME280_temperature;BME280_humidity;BME280_pressure;Samples;Min_cycle;Max_cycle;Signal;HPM_P1;HPM_P2
2023/05/10 07:20:27;;;;;;;2.45;1.27;;;;;;;12.18;96.13;96208.97;2091660;27;20555;-57
2023/05/10 07:22:37;;;;;;;2.25;1.50;;;;;;;12.31;95.94;96206.47;2083754;28;20580;-58
2023/05/10 07:25:01;;;;;;;2.40;1.20;;;;;;;12.36;94.27;96214.91;2084537;27;21076;-58
2023/05/10 07:26:02;;;;;;;2.30;1.40;;;;;;;12.33;93.51;96206.38;2078064;28;20207;-58
2023/05/10 07:27:04;;;;;;;2.67;1.05;;;;;;;12.42;95.70;96213.72;2073880;28;20201;-58
2023/05/10 07:29:23;;;;;;;2.38;1.25;;;;;;;12.43;92.51;96215.41;2099566;27;20906;-58
2023/05/10 07:30:25;;;;;;;2.70;1.33;;;;;;;12.52;93.77;96212.25;2098614;28;20285;-58
2023/05/10 07:31:26;;;;;;;6.10;1.25;;;;;;;12.51;92.97;96213.16;2082222;28;20688;-58
2023/05/10 07:32:28;;;;;;;1.88;1.20;;;;;;;12.65;93.02;96211.50;2079429;28;20201;-58
2023/05/10 07:34:33;;;;;;;1.50;0.70;;;;;;;12.52;91.25;96225.34;2089299;28;20563;-58
2023/05/10 07:35:35;;;;;;;2.22;0.98;;;;;;;12.56;91.41;96229.44;2094269;28;20233;-58
2023/05/10 07:36:37;;;;;;;1.20;0.80;;;;;;;12.61;90.13;96220.47;2088338;28;20225;-58
2023/05/10 07:37:38;;;;;;;2.58;1.10;;;;;;;12.54;90.55;96212.13;2085227;28;20664;-58
2023/05/10 07:38:40;;;;;;;6.05;1.20;;;;;;;12.69;90.97;96228.72;2090174;28;20294;-58
2023/05/10 07:39:41;;;;;;;1.90;0.90;;;;;;;12.64;91.42;96221.13;2091326;28;20201;-58
2023/05/10 07:40:42;;;;;;;1.63;0.98;;;;;;;12.56;88.46;96218.97;2089450;28;20203;-58
2023/05/10 07:41:44;;;;;;;3.00;1.20;;;;;;;12.64;89.39;96228.16;2086203;28;20608;-58
2023/05/10 07:42:45;;;;;;;2.70;0.80;;;;;;;12.73;90.37;96224.97;2085478;28;20716;-58
2023/05/10 07:43:47;;;;;;;10.65;1.17;;;;;;;12.78;90.76;96224.72;2088224;28;20224;-59
2023/05/10 07:44:48;;;;;;;2.45;0.90;;;;;;;12.74;88.93;96222.25;2089578;28;20642;-57
2023/05/10 07:45:49;;;;;;;2.67;0.80;;;;;;;12.81;90.05;96214.03;2088017;28;20219;-58
2023/05/10 07:46:53;;;;;;;2.67;0.88;;;;;;;12.64;86.71;96217.69;2086867;28;20811;-61
2023/05/10 07:47:54;;;;;;;2.13;0.80;;;;;;;12.68;88.19;96213.94;2089313;28;20227;-60
2023/05/10 07:48:55;;;;;;;1.20;0.70;;;;;;;12.84;88.22;96211.25;2090138;28;20196;-60
2023/05/10 07:49:57;;;;;;;3.63;0.82;;;;;;;12.71;86.36;96211.16;2087356;28;20200;-61
2023/05/10 07:50:58;;;;;;;8.93;0.98;;;;;;;12.81;88.72;96225.38;2088783;28;20231;-60
2023/05/10 07:52:00;;;;;;;5.07;0.75;;;;;;;12.78;87.10;96225.53;2087607;28;20200;-60
2023/05/10 07:53:01;;;;;;;2.33;0.80;;;;;;;12.71;86.42;96225.09;2089653;28;20227;-61
2023/05/10 07:54:03;;;;;;;1.33;0.70;;;;;;;12.68;85.01;96229.66;2087612;28;20231;-61
2023/05/10 07:55:05;;;;;;;2.20;0.80;;;;;;;12.71;86.57;96219.84;2087318;28;20758;-61
2023/05/10 07:56:29;;;;;;;5.40;0.82;;;;;;;12.91;87.46;96220.41;2086053;28;20231;-62
2023/05/10 07:57:31;;;;;;;5.07;0.85;;;;;;;12.95;87.14;96218.44;2086889;28;20196;-61
2023/05/10 07:58:32;;;;;;;2.05;0.88;;;;;;;12.94;87.09;96224.63;2087518;28;20830;-61
2023/05/10 07:59:34;;;;;;;1.75;0.85;;;;;;;12.93;85.40;96229.03;2087774;28;20208;-61
2023/05/10 08:00:39;;;;;;;1.60;0.88;;;;;;;12.98;86.16;96226.13;2087417;28;20255;-61
2023/05/10 08:01:41;;;;;;;7.97;1.05;;;;;;;13.00;87.39;96226.88;2081309;28;20225;-61
2023/05/10 08:02:43;;;;;;;2.67;0.80;;;;;;;13.04;86.29;96231.00;2086376;28;20195;-61
2023/05/10 08:03:45;;;;;;;3.95;1.00;;;;;;;13.20;86.87;96229.13;2086132;28;20799;-61
2023/05/10 08:04:46;;;;;;;2.95;0.90;;;;;;;13.29;85.76;96225.06;2087284;28;20550;-61
2023/05/10 08:05:48;;;;;;;1.20;0.60;;;;;;;13.17;84.01;96224.06;2085748;28;20207;-61
2023/05/10 08:06:49;;;;;;;2.10;0.88;;;;;;;13.46;85.27;96238.94;2085721;28;20188;-60
2023/05/10 08:07:51;;;;;;;1.80;0.70;;;;;;;13.56;87.03;96229.56;2084228;28;20204;-61
2023/05/10 08:08:53;;;;;;;1.10;0.65;;;;;;;13.55;85.06;96228.72;2083826;28;20213;-61
2023/05/10 08:09:55;;;;;;;6.20;0.90;;;;;;;13.56;85.67;96234.81;2087664;28;20192;-61
2023/05/10 08:10:56;;;;;;;1.52;0.70;;;;;;;13.57;85.20;96230.41;2087182;28;20196;-61
2023/05/10 08:21:57;;;;;;;1.67;0.80;;;;;;;13.12;87.25;96247.09;2083892;28;20561;-60
2023/05/10 08:23:05;;;;;;;1.92;0.80;;;;;;;13.10;86.36;96245.50;2079249;28;20211;-61
2023/05/10 08:24:07;;;;;;;1.30;0.77;;;;;;;13.08;83.30;96250.84;2080778;28;20196;-60
2023/05/10 08:25:08;;;;;;;1.27;0.63;;;;;;;13.28;82.88;96252.25;2079588;28;20227;-60
2023/05/10 08:26:10;;;;;;;1.00;0.50;;;;;;;13.31;83.42;96248.59;2072435;28;20245;-62
2023/05/10 08:27:12;;;;;;;1.50;0.77;;;;;;;13.34;82.06;96245.75;2066942;28;20718;-62
2023/05/10 08:28:14;;;;;;;1.92;0.90;;;;;;;13.51;82.82;96253.47;2067720;28;20207;-62
2023/05/10 08:29:15;;;;;;;1.25;0.77;;;;;;;13.51;81.63;96242.97;2068997;28;20201;-61
2023/05/10 08:30:17;;;;;;;3.95;0.70;;;;;;;13.52;80.77;96243.78;2066925;28;20252;-62
2023/05/10 08:31:19;;;;;;;1.48;0.68;;;;;;;13.62;80.74;96260.63;2062065;28;20218;-62
2023/05/10 08:32:20;;;;;;;2.03;0.63;;;;;;;13.75;79.26;96245.00;2060085;28;20233;-63
2023/05/10 08:33:22;;;;;;;1.48;0.70;;;;;;;13.93;81.55;96245.59;2060740;28;20345;-62
2023/05/10 08:34:23;;;;;;;1.80;0.90;;;;;;;14.04;81.89;96250.13;2057527;28;20214;-62
2023/05/10 08:35:25;;;;;;;1.50;0.80;;;;;;;14.21;81.35;96255.13;2064170;28;20256;-63
2023/05/10 08:36:27;;;;;;;2.85;0.60;;;;;;;14.04;80.47;96258.84;2062879;28;20225;-62
2023/05/10 08:37:30;;;;;;;1.95;0.60;;;;;;;13.93;79.17;96252.59;2063937;28;20198;-62
2023/05/10 08:38:31;;;;;;;1.83;0.57;;;;;;;13.95;79.74;96255.97;2061864;28;20201;-62
2023/05/10 08:39:35;;;;;;;1.10;0.68;;;;;;;13.72;78.95;96255.66;2061513;28;20736;-62
2023/05/10 08:40:37;;;;;;;4.95;0.80;;;;;;;13.77;80.58;96252.75;2059890;28;20210;-62
2023/05/10 08:41:40;;;;;;;1.90;0.70;;;;;;;13.57;79.16;96222.53;2057996;28;20226;-62
2023/05/10 08:42:47;;;;;;;1.40;0.70;;;;;;;13.73;79.31;96254.72;2059786;28;20198;-61
2023/05/10 08:43:50;;;;;;;4.97;0.82;;;;;;;13.80;80.14;96263.91;2061870;28;20237;-62
2023/05/10 08:44:53;;;;;;;8.85;0.90;;;;;;;13.77;80.26;96258.00;2055797;28;20199;-62
2023/05/10 08:45:58;;;;;;;2.28;0.85;;;;;;;13.74;79.86;96256.41;2061459;28;20199;-62
2023/05/10 08:47:04;;;;;;;10.25;1.00;;;;;;;13.85;78.73;96258.34;2060015;28;20198;-62
2023/05/10 08:48:08;;;;;;;1.48;0.77;;;;;;;13.93;79.13;96255.22;2059423;28;20321;-62
2023/05/10 08:49:13;;;;;;;6.85;1.20;;;;;;;14.09;80.64;96255.09;2063284;28;20335;-62
2023/05/10 08:50:15;;;;;;;1.73;0.90;;;;;;;14.27;80.64;96256.53;2063029;28;20215;-62
2023/05/10 08:51:26;;;;;;;1.30;0.55;;;;;;;13.92;78.51;96251.78;2060088;28;20255;-62
2023/05/10 08:52:29;;;;;;;4.22;0.80;;;;;;;13.66;78.47;96261.28;2060046;28;20226;-62
2023/05/10 08:53:35;;;;;;;1.73;0.80;;;;;;;13.56;78.37;96255.81;2061143;28;20199;-62
2023/05/10 08:54:37;;;;;;;1.25;0.80;;;;;;;13.38;79.08;96248.16;2058442;28;20542;-62
2023/05/10 08:55:41;;;;;;;1.20;0.60;;;;;;;13.49;79.24;96265.00;2060484;28;20209;-62
2023/05/10 08:56:43;;;;;;;2.65;0.70;;;;;;;13.75;79.63;96265.97;2059531;28;20343;-62
2023/05/10 08:57:45;;;;;;;1.40;0.77;;;;;;;13.74;79.66;96263.44;2060719;28;20206;-62
2023/05/10 08:58:47;;;;;;;4.22;0.70;;;;;;;13.63;78.30;96256.25;2061791;28;20199;-62
2023/05/10 08:59:48;;;;;;;6.82;1.10;;;;;;;13.84;79.21;96257.50;2059249;28;20206;-62
2023/05/10 09:00:53;;;;;;;1.73;0.80;;;;;;;13.83;78.54;96261.06;2059034;28;20237;-62
2023/05/10 09:01:57;;;;;;;2.88;0.90;;;;;;;13.93;78.52;96273.59;2062740;28;20210;-62
2023/05/10 09:03:00;;;;;;;7.82;0.70;;;;;;;14.02;78.55;96270.41;2067038;28;20217;-62
2023/05/10 09:04:02;;;;;;;1.30;0.70;;;;;;;13.90;76.45;96266.75;2064815;28;20252;-62
2023/05/10 09:05:05;;;;;;;1.80;0.70;;;;;;;14.17;78.10;96265.91;2061526;28;20285;-62
2023/05/10 09:06:07;;;;;;;1.35;0.70;;;;;;;14.11;76.44;96271.59;2059745;28;20219;-62
2023/05/10 09:07:10;;;;;;;3.25;0.80;;;;;;;14.21;78.46;96260.38;2058520;28;20565;-63
2023/05/10 09:08:15;;;;;;;1.95;0.80;;;;;;;14.31;79.36;96257.13;2061262;28;20260;-62
2023/05/10 09:09:18;;;;;;;1.95;0.70;;;;;;;14.38;77.75;96263.69;2063317;28;20198;-63
2023/05/10 09:10:20;;;;;;;3.60;0.88;;;;;;;14.53;76.09;96267.06;2063629;28;20210;-62
2023/05/10 09:11:22;;;;;;;1.50;0.68;;;;;;;14.63;77.87;96262.06;2064719;28;20276;-62
2023/05/10 09:12:23;;;;;;;2.65;0.80;;;;;;;14.67;77.43;96269.66;2064926;28;20207;-62
2023/05/10 09:13:25;;;;;;;1.30;0.80;;;;;;;14.34;76.61;96273.53;2062828;28;20329;-62
2023/05/10 09:14:27;;;;;;;2.63;0.60;;;;;;;14.54;77.74;96274.03;2064148;28;20225;-62
2023/05/10 09:15:28;;;;;;;1.70;0.75;;;;;;;14.65;76.68;96266.28;2062714;28;20595;-62
2023/05/10 09:16:30;;;;;;;3.88;0.70;;;;;;;14.69;76.98;96277.44;2062196;28;20313;-62
2023/05/10 09:17:31;;;;;;;2.17;0.60;;;;;;;14.68;76.59;96278.38;2063034;28;20654;-62
2023/05/10 09:18:33;;;;;;;4.32;0.60;;;;;;;14.51;76.58;96274.22;2063833;28;20202;-60
2023/05/10 09:19:34;;;;;;;1.17;0.70;;;;;;;14.40;76.53;96281.94;2065067;28;20661;-60
2023/05/10 09:20:36;;;;;;;2.85;0.70;;;;;;;14.40;76.72;96280.19;2063030;28;20269;-60
2023/05/10 09:21:38;;;;;;;1.30;0.65;;;;;;;14.17;76.83;96282.53;2063507;28;20720;-60
2023/05/10 09:22:40;;;;;;;2.17;0.77;;;;;;;13.96;76.54;96279.50;2063109;28;20819;-59
2023/05/10 09:23:46;;;;;;;1.50;0.70;;;;;;;13.93;76.22;96278.84;2061923;28;20233;-60
2023/05/10 09:25:13;;;;;;;6.47;0.80;;;;;;;13.67;76.85;96276.09;2063775;28;20205;-59
2023/05/10 09:26:15;;;;;;;6.82;0.70;;;;;;;13.61;77.09;96284.34;2061139;28;20765;-60
2023/05/10 09:27:26;;;;;;;1.52;0.80;;;;;;;13.41;77.52;96286.44;2061394;28;20547;-59
2023/05/10 09:28:31;;;;;;;3.67;0.70;;;;;;;13.53;77.83;96285.69;2060892;28;20194;-60
2023/05/10 09:29:42;;;;;;;1.58;0.60;;;;;;;13.55;78.36;96288.22;2059542;28;20255;-60
2023/05/10 09:30:53;;;;;;;1.20;0.70;;;;;;;13.55;77.19;96281.19;2060174;28;20199;-60
2023/05/10 09:31:55;;;;;;;1.73;0.73;;;;;;;13.75;77.29;96294.84;2062293;28;20207;-60
2023/05/10 09:32:58;;;;;;;2.45;0.70;;;;;;;13.61;76.28;96287.84;2060063;28;20227;-60
2023/05/10 09:33:59;;;;;;;3.45;1.10;;;;;;;13.76;77.01;96293.88;2060076;28;20199;-60
2023/05/10 09:35:06;;;;;;;3.92;0.80;;;;;;;13.78;76.29;96278.06;2057113;28;20239;-60
2023/05/10 09:36:08;;;;;;;1.92;0.65;;;;;;;14.00;76.62;96288.03;2054031;28;20342;-60
2023/05/10 09:37:10;;;;;;;1.80;0.60;;;;;;;14.14;76.35;96293.22;2053354;28;20819;-60
2023/05/10 09:38:11;;;;;;;3.55;0.68;;;;;;;14.11;76.28;96280.28;2053479;28;20204;-60
2023/05/10 09:39:13;;;;;;;2.30;0.68;;;;;;;14.29;75.51;96287.94;2055845;28;20574;-59
2023/05/10 09:40:19;;;;;;;3.75;0.70;;;;;;;14.51;75.95;96293.47;2056482;28;20202;-59
2023/05/10 09:41:23;;;;;;;4.15;0.90;;;;;;;14.62;74.29;96290.09;2058384;28;20758;-60
2023/05/10 09:42:24;;;;;;;2.08;0.60;;;;;;;14.69;74.61;96288.78;2057805;28;20928;-59
2023/05/10 09:43:27;;;;;;;1.85;0.70;;;;;;;14.41;72.96;96294.16;2053221;28;20213;-60
2023/05/10 09:44:28;;;;;;;7.00;0.93;;;;;;;14.29;74.77;96286.13;2053608;28;20204;-59
2023/05/10 09:45:32;;;;;;;2.25;0.90;;;;;;;14.31;74.80;96296.53;2054883;28;20214;-60
2023/05/10 09:46:36;;;;;;;1.98;0.80;;;;;;;14.42;76.22;96288.78;2056279;28;20698;-59
2023/05/10 09:47:38;;;;;;;1.42;0.77;;;;;;;14.42;74.93;96288.78;2055276;28;20282;-60
2023/05/10 09:48:45;;;;;;;1.92;0.70;;;;;;;14.63;74.54;96281.28;2054184;28;20235;-60
2023/05/10 09:49:51;;;;;;;4.47;0.85;;;;;;;14.99;75.75;96295.53;2052395;28;20652;-60
2023/05/10 09:50:58;;;;;;;2.22;0.98;;;;;;;15.29;74.23;96296.19;2051265;28;20203;-60
2023/05/10 09:52:07;;;;;;;4.45;0.95;;;;;;;15.23;73.39;96291.34;2058253;28;20643;-60
2023/05/10 09:53:09;;;;;;;2.03;0.70;;;;;;;15.30;71.79;96298.72;2055628;28;20202;-60
2023/05/10 09:54:11;;;;;;;5.45;0.80;;;;;;;14.95;71.26;96290.59;2052043;28;20210;-58
2023/05/10 09:55:13;;;;;;;2.00;0.60;;;;;;;14.75;72.71;96291.94;2055108;28;20849;-58
2023/05/10 09:56:33;;;;;;;2.25;0.70;;;;;;;14.94;72.68;96294.19;2059014;28;20570;-59
2023/05/10 09:57:34;;;;;;;1.30;0.60;;;;;;;14.75;71.54;96282.25;2055126;28;20206;-58
2023/05/10 09:58:40;;;;;;;1.33;0.65;;;;;;;14.83;72.45;96292.25;2056433;28;20199;-59
2023/05/10 09:59:42;;;;;;;4.13;0.90;;;;;;;14.70;75.17;96294.88;2054856;28;20673;-59
2023/05/10 10:00:47;;;;;;;1.10;0.60;;;;;;;14.91;75.91;96297.84;2055183;28;20200;-58
2023/05/10 10:01:50;;;;;;;1.52;0.70;;;;;;;15.06;75.99;96298.59;2057773;28;20600;-58
2023/05/10 10:02:59;;;;;;;1.58;0.60;;;;;;;15.16;76.18;96291.78;2056984;28;20253;-58
2023/05/10 10:04:03;;;;;;;1.40;0.73;;;;;;;15.31;76.50;96303.03;2055778;28;20207;-58
2023/05/10 10:05:06;;;;;;;4.22;0.95;;;;;;;15.19;77.24;96304.69;2057153;28;20713;-58
2023/05/10 10:06:08;;;;;;;1.20;0.77;;;;;;;15.27;77.32;96298.91;2058031;28;20230;-58
2023/05/10 10:07:25;;;;;;;2.33;0.70;;;;;;;14.96;77.75;96295.75;2058670;28;20202;-59
2023/05/10 10:08:26;;;;;;;1.60;0.63;;;;;;;14.88;76.34;96305.97;2053790;28;20208;-58
2023/05/10 10:09:28;;;;;;;1.42;0.68;;;;;;;14.47;77.04;96307.72;2051498;28;20300;-58
2023/05/10 10:10:31;;;;;;;3.45;0.82;;;;;;;14.54;77.46;96314.25;2052607;28;20199;-58
2023/05/10 10:11:37;;;;;;;3.30;0.75;;;;;;;14.68;77.52;96305.50;2055115;28;20608;-58
2023/05/10 10:12:40;;;;;;;1.55;0.70;;;;;;;14.59;77.79;96305.22;2057361;28;20207;-59
2023/05/10 10:13:42;;;;;;;2.22;0.77;;;;;;;14.61;77.19;96303.34;2059519;28;20248;-58
2023/05/10 10:14:45;;;;;;;2.08;0.70;;;;;;;14.30;76.23;96290.44;2056945;28;20226;-58
2023/05/10 10:15:50;;;;;;;1.73;0.70;;;;;;;14.15;76.23;96320.34;2058814;28;20210;-58
2023/05/10 10:16:52;;;;;;;1.10;0.60;;;;;;;13.98;77.87;96313.50;2057560;28;20301;-58
2023/05/10 10:18:12;;;;;;;1.23;0.70;;;;;;;13.99;76.60;96317.81;2059058;28;20200;-58
2023/05/10 10:19:15;;;;;;;1.70;0.70;;;;;;;13.38;77.70;96315.47;2057666;28;20223;-58
2023/05/10 10:20:17;;;;;;;3.13;0.70;;;;;;;13.30;78.46;96312.44;2055084;28;20203;-59
2023/05/10 10:23:25;;;;;;;4.50;0.80;;;;;;;12.76;82.47;96313.03;2091005;27;20579;-57
2023/05/10 10:26:11;;;;;;;2.20;0.80;;;;;;;12.68;78.93;96316.94;2078814;28;20570;-57
2023/05/10 10:29:05;;;;;;;3.85;0.80;;;;;;;12.72;80.93;96315.84;2084689;28;20567;-57
2023/05/10 10:32:09;;;;;;;2.85;0.60;;;;;;;12.57;77.28;96314.13;2097056;27;20554;-57
2023/05/10 10:33:32;;;;;;;1.38;0.65;;;;;;;12.66;77.63;96316.19;2098171;28;20564;-57
2023/05/10 10:34:34;;;;;;;2.35;0.80;;;;;;;12.74;76.83;96311.34;2098287;28;20210;-57
2023/05/10 10:35:36;;;;;;;3.67;0.80;;;;;;;12.74;76.43;96311.34;2098837;28;20564;-57
2023/05/10 10:36:44;;;;;;;2.38;0.80;;;;;;;12.89;75.43;96316.63;2097587;28;20221;-57
2023/05/10 10:37:47;;;;;;;1.20;0.57;;;;;;;13.20;76.20;96320.88;2096674;28;20199;-58
2023/05/10 10:38:59;;;;;;;3.10;0.60;;;;;;;13.19;75.41;96310.47;2099019;28;20291;-58
2023/05/10 10:40:00;;;;;;;5.15;0.80;;;;;;;13.37;75.83;96308.56;2097222;28;20199;-57
2023/05/10 10:41:07;;;;;;;6.00;0.73;;;;;;;13.36;75.60;96304.22;2097791;28;20206;-58
2023/05/10 10:42:09;;;;;;;1.67;0.70;;;;;;;13.51;75.52;96305.91;2098691;28;20226;-57
2023/05/10 10:43:24;;;;;;;1.30;0.52;;;;;;;13.37;74.83;96303.31;2098479;28;20191;-58
2023/05/10 10:44:38;;;;;;;3.15;0.95;;;;;;;13.43;74.51;96291.59;2098001;28;20284;-58
2023/05/10 10:45:40;;;;;;;5.78;0.75;;;;;;;13.50;74.50;96300.78;2099414;28;20190;-60
2023/05/10 10:47:11;;;;;;;1.27;0.68;;;;;;;13.57;75.29;96296.81;2098470;28;20223;-60
2023/05/10 10:48:21;;;;;;;1.50;0.70;;;;;;;13.66;74.09;96295.41;2097314;28;20196;-59
2023/05/10 10:49:22;;;;;;;1.30;0.65;;;;;;;13.38;73.43;96295.34;2097549;28;20194;-60
2023/05/10 10:50:24;;;;;;;1.73;0.70;;;;;;;13.49;74.74;96299.09;2107143;28;20199;-57
2023/05/10 10:51:28;;;;;;;2.17;0.80;;;;;;;13.44;74.15;96304.59;2110078;28;20222;-58
2023/05/10 10:52:45;;;;;;;1.83;0.70;;;;;;;13.36;74.81;96306.84;2098859;28;20554;-58
2023/05/10 10:53:48;;;;;;;1.42;0.70;;;;;;;13.33;74.71;96312.25;2097045;28;20206;-58
2023/05/10 10:54:51;;;;;;;2.45;0.68;;;;;;;13.12;74.41;96307.38;2097831;28;20191;-57
2023/05/10 10:56:09;;;;;;;1.85;0.70;;;;;;;13.09;75.08;96310.19;2098012;28;20199;-57
2023/05/10 10:57:14;;;;;;;4.85;1.15;;;;;;;13.30;75.95;96312.44;2094864;28;20203;-58
2023/05/10 10:58:32;;;;;;;1.83;0.80;;;;;;;13.32;75.19;96313.19;2096506;28;20191;-58
2023/05/10 10:59:33;;;;;;;2.15;0.70;;;;;;;13.30;74.89;96315.06;2098883;28;20195;-58
2023/05/10 11:00:40;;;;;;;1.17;0.70;;;;;;;13.36;75.69;96319.94;2100480;28;20195;-58
2023/05/10 11:02:53;;;;;;;5.68;0.60;;;;;;;12.89;74.45;96317.47;2092205;27;20580;-57
2023/05/10 11:04:15;;;;;;;3.40;0.85;;;;;;;12.78;73.81;96317.25;2089363;28;20196;-57
2023/05/10 11:06:33;;;;;;;2.30;0.85;;;;;;;12.73;74.43;96319.28;2076692;28;20570;-57
2023/05/10 11:07:35;;;;;;;3.22;1.13;;;;;;;12.70;73.78;96314.25;2080984;28;20207;-57
2023/05/10 11:08:45;;;;;;;2.15;0.90;;;;;;;12.71;74.10;96311.53;2080432;28;20218;-58
2023/05/10 11:09:47;;;;;;;5.70;0.90;;;;;;;12.73;74.23;96324.53;2073013;28;20208;-57
2023/05/10 11:11:08;;;;;;;2.65;0.98;;;;;;;12.77;74.78;96320.78;2071859;28;20208;-57
2023/05/10 11:12:09;;;;;;;2.05;0.80;;;;;;;12.92;75.13;96326.91;2067172;28;20198;-57
2023/05/10 11:13:11;;;;;;;2.92;1.00;;;;;;;12.97;75.71;96322.25;2065668;28;20199;-58
2023/05/10 11:14:12;;;;;;;3.05;0.70;;;;;;;12.93;75.92;96325.16;2066580;28;20847;-58
2023/05/10 11:15:14;;;;;;;4.78;1.10;;;;;;;12.92;77.65;96326.09;2065980;28;20209;-57
2023/05/10 11:16:23;;;;;;;1.50;0.70;;;;;;;12.87;77.93;96326.34;2064762;28;20568;-58
2023/05/10 11:17:28;;;;;;;1.55;0.70;;;;;;;13.04;80.67;96326.19;2061978;28;20199;-58
2023/05/10 11:18:30;;;;;;;4.35;1.17;;;;;;;13.11;79.97;96326.66;2064087;28;20664;-58
2023/05/10 11:19:32;;;;;;;5.13;1.73;;;;;;;13.02;77.66;96329.84;2065677;28;20251;-58
2023/05/10 11:20:39;;;;;;;3.80;0.80;;;;;;;12.87;76.93;96321.97;2065841;28;20224;-58
2023/05/10 11:21:50;;;;;;;3.70;1.50;;;;;;;12.95;77.69;96325.88;2064955;28;20226;-58
2023/05/10 11:22:52;;;;;;;1.30;0.80;;;;;;;13.02;77.95;96321.97;2063791;28;20198;-58
2023/05/10 11:23:59;;;;;;;3.45;1.02;;;;;;;13.13;77.81;96322.19;2063098;28;20194;-58
2023/05/10 11:25:00;;;;;;;1.58;0.82;;;;;;;13.25;76.96;96304.84;2062179;28;20194;-57
2023/05/10 11:26:02;;;;;;;4.07;0.82;;;;;;;13.36;77.05;96322.56;2073121;28;20218;-58
2023/05/10 11:27:03;;;;;;;2.15;0.90;;;;;;;13.19;75.28;96323.56;2081833;28;20199;-57
2023/05/10 11:28:06;;;;;;;2.38;0.80;;;;;;;13.09;75.21;96314.59;2075773;28;20201;-58
2023/05/10 11:29:07;;;;;;;3.35;0.98;;;;;;;13.23;75.99;96327.72;2071120;28;20201;-57
2023/05/10 11:30:12;;;;;;;2.42;1.05;;;;;;;13.22;76.20;96321.63;2073005;28;20259;-58
2023/05/10 11:31:15;;;;;;;1.25;0.70;;;;;;;13.38;77.23;96323.34;2070935;28;20222;-58
2023/05/10 11:32:17;;;;;;;2.80;0.90;;;;;;;13.41;75.85;96327.53;2073531;28;20279;-57
2023/05/10 11:33:19;;;;;;;3.83;0.90;;;;;;;13.32;75.59;96314.03;2071141;28;20198;-57
2023/05/10 11:34:33;;;;;;;1.20;0.77;;;;;;;13.48;75.45;96319.22;2077301;28;20239;-58
2023/05/10 11:35:39;;;;;;;1.65;0.70;;;;;;;13.43;74.45;96315.19;2070685;28;20240;-57
2023/05/10 11:36:51;;;;;;;2.63;1.10;;;;;;;13.68;75.90;96322.41;2071850;28;20280;-58
2023/05/10 11:37:53;;;;;;;2.08;0.88;;;;;;;13.78;74.44;96323.50;2073483;28;20316;-57
2023/05/10 11:38:56;;;;;;;3.28;0.80;;;;;;;13.93;73.40;96326.09;2073715;28;20813;-57
2023/05/10 11:39:57;;;;;;;2.40;0.80;;;;;;;14.03;73.37;96325.41;2074678;28;20198;-58
2023/05/10 11:40:59;;;;;;;2.20;0.90;;;;;;;14.20;72.98;96326.13;2071367;28;20202;-58
2023/05/10 11:42:00;;;;;;;2.25;0.90;;;;;;;14.41;72.68;96310.78;2066106;28;20703;-57
2023/05/10 11:43:02;;;;;;;2.22;0.77;;;;;;;14.15;71.42;96326.41;2065532;28;20667;-57
2023/05/10 11:44:04;;;;;;;4.72;1.38;;;;;;;14.00;71.43;96322.97;2062065;28;20202;-57
2023/05/10 11:45:06;;;;;;;5.07;1.10;;;;;;;14.00;72.01;96325.59;2064361;28;20201;-58
2023/05/10 11:46:11;;;;;;;4.82;0.95;;;;;;;13.90;71.31;96303.50;2062322;28;20276;-57
2023/05/10 11:47:12;;;;;;;2.70;1.20;;;;;;;13.81;71.40;96323.28;2066316;28;20205;-57
2023/05/10 11:48:14;;;;;;;8.45;0.85;;;;;;;13.82;70.55;96326.78;2065635;28;20202;-58
2023/05/10 11:49:15;;;;;;;2.00;0.80;;;;;;;13.69;70.17;96309.16;2062050;28;20665;-58
2023/05/10 11:50:17;;;;;;;4.90;1.13;;;;;;;13.86;70.37;96317.75;2066070;28;20194;-58
2023/05/10 11:51:21;;;;;;;3.58;1.00;;;;;;;13.79;69.39;96325.19;2079534;28;20221;-59
2023/05/10 11:52:23;;;;;;;2.75;0.90;;;;;;;13.91;68.57;96322.75;2081411;28;20708;-60
2023/05/10 11:53:26;;;;;;;11.38;1.00;;;;;;;13.93;69.66;96320.84;2075241;28;20197;-59
2023/05/10 11:54:28;;;;;;;5.90;1.30;;;;;;;14.20;70.67;96321.69;2074671;28;20309;-59
2023/05/10 11:55:33;;;;;;;2.00;0.80;;;;;;;14.06;68.41;96320.94;2081211;28;20382;-60
2023/05/10 11:56:34;;;;;;;2.47;1.13;;;;;;;14.06;69.05;96316.50;2073385;28;20240;-60
2023/05/10 11:57:38;;;;;;;1.73;1.10;;;;;;;14.36;69.67;96328.63;2073562;28;20276;-60
2023/05/10 11:58:39;;;;;;;2.55;0.88;;;;;;;14.21;67.35;96312.88;2073699;28;20209;-59
2023/05/10 11:59:41;;;;;;;3.33;1.10;;;;;;;14.27;67.94;96319.53;2075565;28;20217;-59
2023/05/10 12:00:44;;;;;;;2.08;0.90;;;;;;;14.11;66.79;96329.34;2069440;28;20896;-59
2023/05/10 12:01:45;;;;;;;4.20;1.02;;;;;;;14.09;68.17;96332.06;2072489;28;20225;-63
2023/05/10 12:02:48;;;;;;;2.60;0.80;;;;;;;13.98;68.09;96334.50;2071528;28;20190;-61
2023/05/10 12:03:51;;;;;;;4.25;0.98;;;;;;;14.13;68.73;96336.19;2073010;28;20202;-61
2023/05/10 12:04:54;;;;;;;2.30;0.80;;;;;;;14.02;68.35;96330.78;2071590;28;20205;-62
2023/05/10 12:05:57;;;;;;;2.58;0.80;;;;;;;14.09;68.40;96342.56;2071471;28;20291;-62
2023/05/10 12:06:58;;;;;;;3.15;0.90;;;;;;;13.98;68.62;96345.88;2073718;28;20216;-61
2023/05/10 12:08:19;;;;;;;4.25;0.90;;;;;;;14.17;70.26;96340.28;2072973;28;20198;-61
2023/05/10 12:09:21;;;;;;;4.90;0.88;;;;;;;14.20;69.37;96340.09;2073439;28;20205;-62
2023/05/10 12:10:40;;;;;;;5.05;0.85;;;;;;;14.09;68.58;96346.97;2072139;28;20240;-62
2023/05/10 12:11:41;;;;;;;2.08;0.85;;;;;;;14.07;68.46;96346.22;2070516;28;20233;-61
2023/05/10 12:12:49;;;;;;;4.00;1.05;;;;;;;14.05;68.01;96341.06;2074414;28;20339;-61
2023/05/10 12:13:51;;;;;;;5.47;0.90;;;;;;;14.15;69.28;96346.59;2072387;28;20209;-61
2023/05/10 12:14:52;;;;;;;3.85;0.90;;;;;;;14.18;69.62;96341.13;2074138;28;20193;-61
2023/05/10 12:15:57;;;;;;;3.63;1.10;;;;;;;14.13;69.51;96341.44;2072421;28;20677;-61
2023/05/10 12:16:59;;;;;;;6.88;1.10;;;;;;;14.19;69.29;96341.06;2080847;28;20232;-61
2023/05/10 12:18:01;;;;;;;3.45;1.00;;;;;;;14.45;69.70;96337.66;2074038;28;20240;-61
2023/05/10 12:19:02;;;;;;;1.92;0.80;;;;;;;14.40;69.67;96331.84;2066520;28;20427;-61
2023/05/10 12:20:21;;;;;;;3.95;1.05;;;;;;;14.41;69.28;96337.03;2064493;28;20199;-61
2023/05/10 12:21:23;;;;;;;3.65;0.80;;;;;;;14.33;68.60;96347.19;2065772;28;20225;-61
2023/05/10 12:22:24;;;;;;;5.25;1.10;;;;;;;14.18;68.15;96343.75;2065631;28;20205;-61
2023/05/10 12:23:26;;;;;;;4.47;0.90;;;;;;;14.17;68.83;96344.69;2065003;28;20237;-61
2023/05/10 12:24:27;;;;;;;2.70;0.90;;;;;;;14.26;69.57;96340.63;2064298;28;20194;-61
2023/05/10 12:25:31;;;;;;;14.13;1.13;;;;;;;14.59;69.64;96345.50;2065967;28;20249;-61
2023/05/10 12:26:35;;;;;;;1.75;0.82;;;;;;;14.55;69.01;96333.50;2068664;28;20221;-61
2023/05/10 12:27:36;;;;;;;1.95;0.80;;;;;;;14.43;68.73;96334.31;2068085;28;20224;-61
2023/05/10 12:28:39;;;;;;;2.67;0.95;;;;;;;14.58;69.28;96341.19;2068007;28;20198;-61
2023/05/10 12:29:44;;;;;;;3.60;1.23;;;;;;;14.64;69.50;96332.94;2069012;28;20844;-61
2023/05/10 12:30:48;;;;;;;3.97;1.08;;;;;;;14.70;68.27;96339.56;2067570;28;20611;-61
2023/05/10 12:31:58;;;;;;;2.72;0.70;;;;;;;14.76;68.05;96347.03;2067747;28;20210;-61
2023/05/10 12:33:03;;;;;;;4.30;0.93;;;;;;;14.67;68.71;96334.50;2067262;28;20206;-61
2023/05/10 12:34:04;;;;;;;6.13;1.80;;;;;;;14.71;68.63;96340.41;2068469;28;20829;-61
2023/05/10 12:35:07;;;;;;;2.72;0.90;;;;;;;14.71;67.76;96343.03;2067548;28;20198;-61
2023/05/10 12:36:10;;;;;;;5.22;0.98;;;;;;;14.82;67.88;96337.91;2067971;28;20252;-61
2023/05/10 12:37:12;;;;;;;12.23;6.18;;;;;;;14.79;67.92;96343.34;2068173;28;20198;-60
2023/05/10 12:38:33;;;;;;;20.70;10.70;;;;;;;14.86;68.34;96334.13;2068331;28;20209;-60
2023/05/10 12:39:43;;;;;;;8.15;2.92;;;;;;;14.49;67.18;96345.25;2069109;28;20186;-60
2023/05/10 12:40:44;;;;;;;2.95;1.30;;;;;;;14.39;67.05;96328.41;2067652;28;20204;-61
2023/05/10 12:41:45;;;;;;;2.42;0.80;;;;;;;14.10;67.78;96315.38;2068292;28;20194;-61
2023/05/10 12:42:48;;;;;;;4.00;1.10;;;;;;;14.31;68.12;96334.16;2067945;28;20669;-61
2023/05/10 12:43:51;;;;;;;15.27;1.70;;;;;;;14.32;68.57;96343.72;2064326;28;20206;-61
2023/05/10 12:44:56;;;;;;;17.20;1.90;;;;;;;14.39;67.92;96335.44;2059139;28;20199;-61
2023/05/10 12:45:59;;;;;;;9.20;1.63;;;;;;;14.46;68.66;96331.47;2057996;28;20239;-61
2023/05/10 12:47:00;;;;;;;13.57;1.33;;;;;;;14.41;67.97;96339.66;2075018;28;20236;-61